sensor_id;sensor_type;location;lat;lon;timestamp;P1;durP1;ratioP1;P2;durP2;ratioP2
19149;SDS011;9707;49.158;8.632;2022-09-28T00:00:58;0.93;;;0.20;;
19149;SDS011;9707;49.158;8.632;2022-09-28T00:03:29;0.40;;;0.13;;
19149;SDS011;9707;49.158;8.632;2022-09-28T00:05:59;0.55;;;0.20;;
19149;SDS011;9707;49.158;8.632;2022-09-28T00:08:26;0.43;;;0.30;;
19149;SDS011;9707;49.158;8.632;2022-09-28T00:10:54;1.63;;;0.30;;
19149;SDS011;9707;49.158;8.632;2022-09-28T00:13:20;1.50;;;0.30;;
19149;SDS011;9707;49.158;8.632;2022-09-28T00:15:46;0.20;;;0.17;;
19149;SDS011;9707;49.158;8.632;2022-09-28T00:18:11;0.20;;;0.10;;
19149;SDS011;9707;49.158;8.632;2022-09-28T00:20:36;0.85;;;0.20;;
19149;SDS011;9707;49.158;8.632;2022-09-28T00:23:02;0.77;;;0.20;;
19149;SDS011;9707;49.158;8.632;2022-09-28T00:25:27;0.50;;;0.30;;
19149;SDS011;9707;49.158;8.632;2022-09-28T00:27:53;0.55;;;0.15;;
19149;SDS011;9707;49.158;8.632;2022-09-28T00:30:20;0.30;;;0.15;;
19149;SDS011;9707;49.158;8.632;2022-09-28T00:32:45;1.30;;;0.20;;
19149;SDS011;9707;49.158;8.632;2022-09-28T00:35:10;1.55;;;0.30;;
19149;SDS011;9707;49.158;8.632;2022-09-28T00:37:36;1.95;;;0.38;;
19149;SDS011;9707;49.158;8.632;2022-09-28T00:40:01;0.80;;;0.25;;
19149;SDS011;9707;49.158;8.632;2022-09-28T00:42:26;0.95;;;0.25;;
19149;SDS011;9707;49.158;8.632;2022-09-28T00:44:52;0.75;;;0.28;;
19149;SDS011;9707;49.158;8.632;2022-09-28T00:52:47;0.70;;;0.20;;
19149;SDS011;9707;49.158;8.632;2022-09-28T00:55:16;3.63;;;1.00;;
19149;SDS011;9707;49.158;8.632;2022-09-28T00:57:47;1.15;;;0.28;;
19149;SDS011;9707;49.158;8.632;2022-09-28T01:00:17;2.28;;;0.38;;
19149;SDS011;9707;49.158;8.632;2022-09-28T01:06:04;1.23;;;0.30;;
19149;SDS011;9707;49.158;8.632;2022-09-28T01:08:31;3.22;;;0.68;;
19149;SDS011;9707;49.158;8.632;2022-09-28T01:10:58;3.80;;;1.25;;
19149;SDS011;9707;49.158;8.632;2022-09-28T01:13:24;0.82;;;0.30;;
19149;SDS011;9707;49.158;8.632;2022-09-28T01:16:03;1.10;;;0.47;;
19149;SDS011;9707;49.158;8.632;2022-09-28T01:21:08;3.08;;;0.50;;
19149;SDS011;9707;49.158;8.632;2022-09-28T01:26:58;1.42;;;0.40;;
19149;SDS011;9707;49.158;8.632;2022-09-28T01:32:20;1.65;;;0.52;;
19149;SDS011;9707;49.158;8.632;2022-09-28T01:37:19;1.45;;;0.30;;
19149;SDS011;9707;49.158;8.632;2022-09-28T01:39:50;1.23;;;0.50;;
19149;SDS011;9707;49.158;8.632;2022-09-28T01:42:24;1.02;;;0.30;;
19149;SDS011;9707;49.158;8.632;2022-09-28T01:44:54;1.75;;;0.50;;
19149;SDS011;9707;49.158;8.632;2022-09-28T01:47:24;1.42;;;0.40;;
19149;SDS011;9707;49.158;8.632;2022-09-28T01:50:04;2.13;;;0.50;;
19149;SDS011;9707;49.158;8.632;2022-09-28T01:52:36;3.75;;;0.50;;
19149;SDS011;9707;49.158;8.632;2022-09-28T01:55:12;2.22;;;0.50;;
19149;SDS011;9707;49.158;8.632;2022-09-28T01:57:47;2.40;;;0.32;;
19149;SDS011;9707;49.158;8.632;2022-09-28T02:00:17;1.35;;;0.30;;
19149;SDS011;9707;49.158;8.632;2022-09-28T02:07:39;2.58;;;0.40;;
19149;SDS011;9707;49.158;8.632;2022-09-28T02:10:15;2.25;;;0.50;;
19149;SDS011;9707;49.158;8.632;2022-09-28T02:12:47;2.10;;;0.40;;
19149;SDS011;9707;49.158;8.632;2022-09-28T02:17:43;1.42;;;0.80;;
19149;SDS011;9707;49.158;8.632;2022-09-28T02:20:09;2.45;;;0.60;;
19149;SDS011;9707;49.158;8.632;2022-09-28T02:22:38;2.72;;;0.60;;
19149;SDS011;9707;49.158;8.632;2022-09-28T02:25:09;3.25;;;0.70;;
19149;SDS011;9707;49.158;8.632;2022-09-28T02:27:54;1.98;;;0.40;;
19149;SDS011;9707;49.158;8.632;2022-09-28T02:30:24;2.78;;;0.35;;
19149;SDS011;9707;49.158;8.632;2022-09-28T02:32:50;1.88;;;0.52;;
19149;SDS011;9707;49.158;8.632;2022-09-28T02:35:19;2.90;;;0.60;;
19149;SDS011;9707;49.158;8.632;2022-09-28T02:37:45;3.33;;;0.70;;
19149;SDS011;9707;49.158;8.632;2022-09-28T02:40:14;3.22;;;0.60;;
19149;SDS011;9707;49.158;8.632;2022-09-28T02:45:32;1.20;;;0.50;;
19149;SDS011;9707;49.158;8.632;2022-09-28T02:56:34;2.10;;;0.35;;
19149;SDS011;9707;49.158;8.632;2022-09-28T03:05:09;0.80;;;0.35;;
19149;SDS011;9707;49.158;8.632;2022-09-28T03:07:51;1.95;;;0.40;;
19149;SDS011;9707;49.158;8.632;2022-09-28T03:10:24;1.85;;;0.60;;
19149;SDS011;9707;49.158;8.632;2022-09-28T03:12:50;1.40;;;0.50;;
19149;SDS011;9707;49.158;8.632;2022-09-28T03:15:19;0.93;;;0.38;;
19149;SDS011;9707;49.158;8.632;2022-09-28T03:17:46;1.00;;;0.40;;
19149;SDS011;9707;49.158;8.632;2022-09-28T03:20:12;2.20;;;0.45;;
19149;SDS011;9707;49.158;8.632;2022-09-28T03:22:38;1.20;;;0.45;;
19149;SDS011;9707;49.158;8.632;2022-09-28T03:25:04;1.83;;;0.47;;
19149;SDS011;9707;49.158;8.632;2022-09-28T03:27:30;0.95;;;0.40;;
19149;SDS011;9707;49.158;8.632;2022-09-28T03:29:55;1.52;;;0.40;;
19149;SDS011;9707;49.158;8.632;2022-09-28T03:32:21;1.30;;;0.30;;
19149;SDS011;9707;49.158;8.632;2022-09-28T03:34:46;1.00;;;0.60;;
19149;SDS011;9707;49.158;8.632;2022-09-28T03:37:11;1.92;;;0.40;;
19149;SDS011;9707;49.158;8.632;2022-09-28T03:39:37;1.55;;;0.50;;
19149;SDS011;9707;49.158;8.632;2022-09-28T03:42:02;1.88;;;0.93;;
19149;SDS011;9707;49.158;8.632;2022-09-28T03:44:27;1.65;;;1.30;;
19149;SDS011;9707;49.158;8.632;2022-09-28T03:46:53;3.15;;;1.20;;
19149;SDS011;9707;49.158;8.632;2022-09-28T03:49:18;2.10;;;0.50;;
19149;SDS011;9707;49.158;8.632;2022-09-28T03:51:43;2.28;;;0.50;;
19149;SDS011;9707;49.158;8.632;2022-09-28T03:54:08;1.80;;;0.50;;
19149;SDS011;9707;49.158;8.632;2022-09-28T03:56:34;2.22;;;0.40;;
19149;SDS011;9707;49.158;8.632;2022-09-28T03:59:01;1.55;;;0.40;;
19149;SDS011;9707;49.158;8.632;2022-09-28T04:01:27;1.60;;;0.40;;
19149;SDS011;9707;49.158;8.632;2022-09-28T04:03:53;2.15;;;0.60;;
19149;SDS011;9707;49.158;8.632;2022-09-28T04:06:21;1.65;;;0.80;;
19149;SDS011;9707;49.158;8.632;2022-09-28T04:08:47;1.45;;;0.60;;
19149;SDS011;9707;49.158;8.632;2022-09-28T04:11:13;1.38;;;0.35;;
19149;SDS011;9707;49.158;8.632;2022-09-28T04:13:38;1.70;;;0.57;;
19149;SDS011;9707;49.158;8.632;2022-09-28T04:16:03;2.92;;;0.68;;
19149;SDS011;9707;49.158;8.632;2022-09-28T04:18:30;1.08;;;0.47;;
19149;SDS011;9707;49.158;8.632;2022-09-28T04:21:00;1.67;;;0.60;;
19149;SDS011;9707;49.158;8.632;2022-09-28T04:23:30;2.47;;;1.42;;
19149;SDS011;9707;49.158;8.632;2022-09-28T04:25:56;5.03;;;1.13;;
19149;SDS011;9707;49.158;8.632;2022-09-28T04:28:21;2.08;;;0.90;;
19149;SDS011;9707;49.158;8.632;2022-09-28T04:31:12;1.80;;;0.90;;
19149;SDS011;9707;49.158;8.632;2022-09-28T04:33:41;1.80;;;0.70;;
19149;SDS011;9707;49.158;8.632;2022-09-28T04:36:06;2.95;;;1.38;;
19149;SDS011;9707;49.158;8.632;2022-09-28T04:38:33;2.38;;;1.25;;
19149;SDS011;9707;49.158;8.632;2022-09-28T04:40:59;2.00;;;0.70;;
19149;SDS011;9707;49.158;8.632;2022-09-28T04:43:24;1.92;;;0.68;;
19149;SDS011;9707;49.158;8.632;2022-09-28T04:45:50;2.28;;;0.75;;
19149;SDS011;9707;49.158;8.632;2022-09-28T04:48:15;2.90;;;0.80;;
19149;SDS011;9707;49.158;8.632;2022-09-28T04:50:41;1.88;;;0.65;;
19149;SDS011;9707;49.158;8.632;2022-09-28T04:53:06;3.33;;;0.60;;
19149;SDS011;9707;49.158;8.632;2022-09-28T04:55:31;1.98;;;0.65;;
19149;SDS011;9707;49.158;8.632;2022-09-28T04:57:57;2.65;;;0.55;;
19149;SDS011;9707;49.158;8.632;2022-09-28T05:00:26;1.90;;;0.38;;
19149;SDS011;9707;49.158;8.632;2022-09-28T05:02:53;3.28;;;0.75;;
19149;SDS011;9707;49.158;8.632;2022-09-28T05:05:19;1.42;;;0.57;;
19149;SDS011;9707;49.158;8.632;2022-09-28T05:07:45;1.52;;;0.55;;
19149;SDS011;9707;49.158;8.632;2022-09-28T05:10:10;1.80;;;0.73;;
19149;SDS011;9707;49.158;8.632;2022-09-28T05:12:36;2.05;;;0.75;;
19149;SDS011;9707;49.158;8.632;2022-09-28T05:15:01;2.30;;;0.73;;
19149;SDS011;9707;49.158;8.632;2022-09-28T05:17:27;2.83;;;0.50;;
19149;SDS011;9707;49.158;8.632;2022-09-28T05:19:52;2.17;;;0.57;;
19149;SDS011;9707;49.158;8.632;2022-09-28T05:22:17;4.28;;;0.70;;
19149;SDS011;9707;49.158;8.632;2022-09-28T05:24:43;4.22;;;0.88;;
19149;SDS011;9707;49.158;8.632;2022-09-28T05:27:10;1.63;;;0.60;;
19149;SDS011;9707;49.158;8.632;2022-09-28T05:29:35;2.28;;;1.00;;
19149;SDS011;9707;49.158;8.632;2022-09-28T05:32:01;1.98;;;1.10;;
19149;SDS011;9707;49.158;8.632;2022-09-28T05:34:26;2.10;;;0.90;;
19149;SDS011;9707;49.158;8.632;2022-09-28T05:36:52;2.63;;;1.10;;
19149;SDS011;9707;49.158;8.632;2022-09-28T05:39:17;3.13;;;0.90;;
19149;SDS011;9707;49.158;8.632;2022-09-28T05:41:42;3.63;;;1.20;;
19149;SDS011;9707;49.158;8.632;2022-09-28T05:44:07;2.47;;;0.80;;
19149;SDS011;9707;49.158;8.632;2022-09-28T05:46:33;2.53;;;0.73;;
19149;SDS011;9707;49.158;8.632;2022-09-28T05:48:58;3.97;;;1.05;;
19149;SDS011;9707;49.158;8.632;2022-09-28T05:51:24;4.03;;;1.25;;
19149;SDS011;9707;49.158;8.632;2022-09-28T05:53:49;3.28;;;1.10;;
19149;SDS011;9707;49.158;8.632;2022-09-28T05:56:18;3.30;;;1.10;;
19149;SDS011;9707;49.158;8.632;2022-09-28T05:58:43;3.78;;;1.25;;
19149;SDS011;9707;49.158;8.632;2022-09-28T06:01:09;2.70;;;1.10;;
19149;SDS011;9707;49.158;8.632;2022-09-28T06:03:34;2.80;;;0.93;;
19149;SDS011;9707;49.158;8.632;2022-09-28T06:05:59;2.38;;;1.00;;
19149;SDS011;9707;49.158;8.632;2022-09-28T06:08:26;2.58;;;1.15;;
19149;SDS011;9707;49.158;8.632;2022-09-28T06:10:52;2.55;;;0.90;;
19149;SDS011;9707;49.158;8.632;2022-09-28T06:13:17;3.20;;;1.08;;
19149;SDS011;9707;49.158;8.632;2022-09-28T06:15:43;2.88;;;0.93;;
19149;SDS011;9707;49.158;8.632;2022-09-28T06:18:11;3.28;;;1.10;;
19149;SDS011;9707;49.158;8.632;2022-09-28T06:20:40;2.67;;;1.40;;
19149;SDS011;9707;49.158;8.632;2022-09-28T06:23:07;2.00;;;0.80;;
19149;SDS011;9707;49.158;8.632;2022-09-28T06:25:36;2.28;;;1.00;;
19149;SDS011;9707;49.158;8.632;2022-09-28T06:28:04;4.05;;;1.05;;
19149;SDS011;9707;49.158;8.632;2022-09-28T06:30:32;2.90;;;1.60;;
19149;SDS011;9707;49.158;8.632;2022-09-28T06:32:59;2.40;;;1.27;;
19149;SDS011;9707;49.158;8.632;2022-09-28T06:35:26;4.85;;;2.00;;
19149;SDS011;9707;49.158;8.632;2022-09-28T06:37:54;4.22;;;1.83;;
19149;SDS011;9707;49.158;8.632;2022-09-28T06:40:20;5.82;;;2.50;;
19149;SDS011;9707;49.158;8.632;2022-09-28T06:43:03;13.27;;;9.90;;
19149;SDS011;9707;49.158;8.632;2022-09-28T06:45:34;9.20;;;5.55;;
19149;SDS011;9707;49.158;8.632;2022-09-28T06:48:00;3.17;;;1.42;;
19149;SDS011;9707;49.158;8.632;2022-09-28T06:50:28;4.72;;;1.70;;
19149;SDS011;9707;49.158;8.632;2022-09-28T06:52:58;4.05;;;1.67;;
19149;SDS011;9707;49.158;8.632;2022-09-28T06:55:24;5.30;;;1.88;;
19149;SDS011;9707;49.158;8.632;2022-09-28T06:57:57;3.58;;;1.58;;
19149;SDS011;9707;49.158;8.632;2022-09-28T07:00:23;3.50;;;1.67;;
19149;SDS011;9707;49.158;8.632;2022-09-28T07:02:48;6.53;;;1.77;;
19149;SDS011;9707;49.158;8.632;2022-09-28T07:05:13;3.22;;;1.30;;
19149;SDS011;9707;49.158;8.632;2022-09-28T07:07:39;2.42;;;1.20;;
19149;SDS011;9707;49.158;8.632;2022-09-28T07:10:08;4.70;;;1.27;;
19149;SDS011;9707;49.158;8.632;2022-09-28T07:12:34;4.65;;;1.33;;
19149;SDS011;9707;49.158;8.632;2022-09-28T07:14:59;4.97;;;1.58;;
19149;SDS011;9707;49.158;8.632;2022-09-28T07:17:25;5.22;;;1.83;;
19149;SDS011;9707;49.158;8.632;2022-09-28T07:19:50;2.80;;;1.08;;
19149;SDS011;9707;49.158;8.632;2022-09-28T07:22:18;3.95;;;1.23;;
19149;SDS011;9707;49.158;8.632;2022-09-28T07:24:43;3.47;;;1.25;;
19149;SDS011;9707;49.158;8.632;2022-09-28T07:27:09;3.25;;;1.15;;
19149;SDS011;9707;49.158;8.632;2022-09-28T07:29:34;4.53;;;1.10;;
19149;SDS011;9707;49.158;8.632;2022-09-28T07:32:00;2.05;;;0.85;;
19149;SDS011;9707;49.158;8.632;2022-09-28T07:34:25;3.17;;;0.95;;
19149;SDS011;9707;49.158;8.632;2022-09-28T07:36:50;4.65;;;1.20;;
19149;SDS011;9707;49.158;8.632;2022-09-28T07:39:21;2.17;;;0.82;;
19149;SDS011;9707;49.158;8.632;2022-09-28T07:41:46;3.05;;;1.00;;
19149;SDS011;9707;49.158;8.632;2022-09-28T07:44:12;4.55;;;0.90;;
19149;SDS011;9707;49.158;8.632;2022-09-28T07:46:39;2.13;;;1.00;;
19149;SDS011;9707;49.158;8.632;2022-09-28T07:49:05;4.07;;;1.13;;
19149;SDS011;9707;49.158;8.632;2022-09-28T07:51:30;2.30;;;1.20;;
19149;SDS011;9707;49.158;8.632;2022-09-28T07:53:56;3.03;;;0.80;;
19149;SDS011;9707;49.158;8.632;2022-09-28T07:56:22;2.72;;;0.77;;
19149;SDS011;9707;49.158;8.632;2022-09-28T07:58:47;2.53;;;0.95;;
19149;SDS011;9707;49.158;8.632;2022-09-28T08:01:14;3.00;;;1.00;;
19149;SDS011;9707;49.158;8.632;2022-09-28T08:03:40;1.92;;;0.80;;
19149;SDS011;9707;49.158;8.632;2022-09-28T08:06:09;1.67;;;1.10;;
19149;SDS011;9707;49.158;8.632;2022-09-28T08:08:36;2.25;;;1.17;;
19149;SDS011;9707;49.158;8.632;2022-09-28T08:11:07;2.38;;;0.77;;
19149;SDS011;9707;49.158;8.632;2022-09-28T08:13:34;4.45;;;1.10;;
19149;SDS011;9707;49.158;8.632;2022-09-28T08:16:01;4.22;;;1.27;;
19149;SDS011;9707;49.158;8.632;2022-09-28T08:18:28;2.45;;;0.70;;
19149;SDS011;9707;49.158;8.632;2022-09-28T08:20:54;2.65;;;0.82;;
19149;SDS011;9707;49.158;8.632;2022-09-28T08:23:38;2.85;;;0.82;;
19149;SDS011;9707;49.158;8.632;2022-09-28T08:26:03;3.35;;;0.98;;
19149;SDS011;9707;49.158;8.632;2022-09-28T08:28:29;1.98;;;0.82;;
19149;SDS011;9707;49.158;8.632;2022-09-28T08:30:57;4.15;;;1.05;;
19149;SDS011;9707;49.158;8.632;2022-09-28T08:33:24;6.07;;;1.08;;
19149;SDS011;9707;49.158;8.632;2022-09-28T08:35:56;4.20;;;0.80;;
19149;SDS011;9707;49.158;8.632;2022-09-28T08:38:26;1.88;;;0.80;;
19149;SDS011;9707;49.158;8.632;2022-09-28T08:46:04;3.45;;;0.93;;
19149;SDS011;9707;49.158;8.632;2022-09-28T08:48:31;2.17;;;0.70;;
19149;SDS011;9707;49.158;8.632;2022-09-28T08:51:21;2.28;;;0.90;;
19149;SDS011;9707;49.158;8.632;2022-09-28T08:59:16;3.33;;;0.93;;
19149;SDS011;9707;49.158;8.632;2022-09-28T09:01:49;1.95;;;0.80;;
19149;SDS011;9707;49.158;8.632;2022-09-28T09:04:27;2.67;;;0.80;;
19149;SDS011;9707;49.158;8.632;2022-09-28T09:20:47;2.33;;;0.75;;
19149;SDS011;9707;49.158;8.632;2022-09-28T09:26:17;2.53;;;0.90;;
19149;SDS011;9707;49.158;8.632;2022-09-28T09:28:56;2.38;;;0.85;;
19149;SDS011;9707;49.158;8.632;2022-09-28T09:42:25;2.30;;;1.00;;
19149;SDS011;9707;49.158;8.632;2022-09-28T09:47:43;2.70;;;0.68;;
19149;SDS011;9707;49.158;8.632;2022-09-28T09:50:36;4.00;;;1.08;;
19149;SDS011;9707;49.158;8.632;2022-09-28T09:55:47;1.80;;;1.00;;
19149;SDS011;9707;49.158;8.632;2022-09-28T10:00:47;2.88;;;1.02;;
19149;SDS011;9707;49.158;8.632;2022-09-28T10:03:16;3.25;;;1.10;;
19149;SDS011;9707;49.158;8.632;2022-09-28T10:06:04;2.97;;;0.90;;
19149;SDS011;9707;49.158;8.632;2022-09-28T10:09:10;2.38;;;0.82;;
19149;SDS011;9707;49.158;8.632;2022-09-28T10:11:38;4.78;;;1.27;;
19149;SDS011;9707;49.158;8.632;2022-09-28T10:14:09;3.90;;;1.10;;
19149;SDS011;9707;49.158;8.632;2022-09-28T10:16:39;4.50;;;0.90;;
19149;SDS011;9707;49.158;8.632;2022-09-28T10:19:07;2.78;;;0.90;;
19149;SDS011;9707;49.158;8.632;2022-09-28T10:21:34;3.38;;;1.20;;
19149;SDS011;9707;49.158;8.632;2022-09-28T10:24:04;4.10;;;0.93;;
19149;SDS011;9707;49.158;8.632;2022-09-28T10:26:35;3.85;;;0.80;;
19149;SDS011;9707;49.158;8.632;2022-09-28T10:29:14;3.50;;;1.10;;
19149;SDS011;9707;49.158;8.632;2022-09-28T10:31:42;4.63;;;1.33;;
19149;SDS011;9707;49.158;8.632;2022-09-28T10:34:10;2.65;;;0.88;;
19149;SDS011;9707;49.158;8.632;2022-09-28T10:36:43;1.95;;;0.73;;
19149;SDS011;9707;49.158;8.632;2022-09-28T10:42:10;2.65;;;0.70;;
19149;SDS011;9707;49.158;8.632;2022-09-28T10:47:18;2.70;;;0.90;;
19149;SDS011;9707;49.158;8.632;2022-09-28T10:49:46;3.08;;;1.35;;
19149;SDS011;9707;49.158;8.632;2022-09-28T10:55:26;4.43;;;1.10;;
19149;SDS011;9707;49.158;8.632;2022-09-28T10:57:51;3.78;;;1.02;;
19149;SDS011;9707;49.158;8.632;2022-09-28T11:03:07;2.75;;;0.73;;
19149;SDS011;9707;49.158;8.632;2022-09-28T11:05:42;2.08;;;0.90;;
19149;SDS011;9707;49.158;8.632;2022-09-28T11:08:37;1.45;;;0.80;;
19149;SDS011;9707;49.158;8.632;2022-09-28T11:11:08;4.05;;;0.85;;
19149;SDS011;9707;49.158;8.632;2022-09-28T11:13:48;3.88;;;0.93;;
19149;SDS011;9707;49.158;8.632;2022-09-28T11:16:22;3.05;;;1.00;;
19149;SDS011;9707;49.158;8.632;2022-09-28T11:18:56;2.97;;;0.95;;
19149;SDS011;9707;49.158;8.632;2022-09-28T11:21:42;3.70;;;1.13;;
19149;SDS011;9707;49.158;8.632;2022-09-28T11:26:43;4.13;;;1.00;;
19149;SDS011;9707;49.158;8.632;2022-09-28T11:29:43;6.75;;;1.30;;
19149;SDS011;9707;49.158;8.632;2022-09-28T11:32:05;1.58;;;0.68;;
19149;SDS011;9707;49.158;8.632;2022-09-28T11:34:37;3.25;;;0.88;;
19149;SDS011;9707;49.158;8.632;2022-09-28T11:42:45;4.47;;;1.30;;
19149;SDS011;9707;49.158;8.632;2022-09-28T11:45:31;2.28;;;1.13;;
19149;SDS011;9707;49.158;8.632;2022-09-28T11:48:06;2.45;;;1.00;;
19149;SDS011;9707;49.158;8.632;2022-09-28T11:53:24;3.22;;;1.10;;
19149;SDS011;9707;49.158;8.632;2022-09-28T11:55:58;2.97;;;0.98;;
19149;SDS011;9707;49.158;8.632;2022-09-28T11:58:34;3.67;;;1.17;;
19149;SDS011;9707;49.158;8.632;2022-09-28T12:06:39;2.70;;;0.90;;
19149;SDS011;9707;49.158;8.632;2022-09-28T12:09:56;3.22;;;1.00;;
19149;SDS011;9707;49.158;8.632;2022-09-28T12:12:06;3.20;;;0.82;;
19149;SDS011;9707;49.158;8.632;2022-09-28T12:14:51;6.47;;;1.25;;
19149;SDS011;9707;49.158;8.632;2022-09-28T12:17:28;3.00;;;1.08;;
19149;SDS011;9707;49.158;8.632;2022-09-28T12:22:39;2.97;;;1.20;;
19149;SDS011;9707;49.158;8.632;2022-09-28T12:25:27;2.63;;;1.10;;
19149;SDS011;9707;49.158;8.632;2022-09-28T12:27:59;1.85;;;0.98;;
19149;SDS011;9707;49.158;8.632;2022-09-28T12:30:32;5.47;;;1.20;;
19149;SDS011;9707;49.158;8.632;2022-09-28T12:33:06;3.95;;;1.27;;
19149;SDS011;9707;49.158;8.632;2022-09-28T12:38:51;4.47;;;1.38;;
19149;SDS011;9707;49.158;8.632;2022-09-28T12:52:24;3.20;;;0.98;;
19149;SDS011;9707;49.158;8.632;2022-09-28T12:55:03;2.35;;;1.10;;
19149;SDS011;9707;49.158;8.632;2022-09-28T12:57:38;3.78;;;1.20;;
19149;SDS011;9707;49.158;8.632;2022-09-28T13:00:13;2.88;;;0.90;;
19149;SDS011;9707;49.158;8.632;2022-09-28T13:02:55;5.00;;;1.00;;
19149;SDS011;9707;49.158;8.632;2022-09-28T13:09:02;3.25;;;0.95;;
19149;SDS011;9707;49.158;8.632;2022-09-28T13:14:47;2.53;;;1.08;;
19149;SDS011;9707;49.158;8.632;2022-09-28T13:23:43;5.82;;;1.10;;
19149;SDS011;9707;49.158;8.632;2022-09-28T13:28:46;2.15;;;1.00;;
19149;SDS011;9707;49.158;8.632;2022-09-28T13:31:16;2.47;;;0.98;;
19149;SDS011;9707;49.158;8.632;2022-09-28T13:33:44;3.65;;;1.40;;
19149;SDS011;9707;49.158;8.632;2022-09-28T13:38:51;3.80;;;1.40;;
19149;SDS011;9707;49.158;8.632;2022-09-28T13:41:20;2.55;;;1.30;;
19149;SDS011;9707;49.158;8.632;2022-09-28T14:05:06;13.02;;;7.10;;
19149;SDS011;9707;49.158;8.632;2022-09-28T14:10:45;2.42;;;0.70;;
19149;SDS011;9707;49.158;8.632;2022-09-28T14:16:22;4.60;;;0.80;;
19149;SDS011;9707;49.158;8.632;2022-09-28T14:18:54;5.10;;;0.93;;
19149;SDS011;9707;49.158;8.632;2022-09-28T14:29:47;2.67;;;0.80;;
19149;SDS011;9707;49.158;8.632;2022-09-28T14:32:38;3.10;;;0.95;;
19149;SDS011;9707;49.158;8.632;2022-09-28T14:35:17;2.50;;;0.82;;
19149;SDS011;9707;49.158;8.632;2022-09-28T14:37:47;4.25;;;0.80;;
19149;SDS011;9707;49.158;8.632;2022-09-28T14:48:53;3.83;;;1.50;;
19149;SDS011;9707;49.158;8.632;2022-09-28T14:54:03;2.40;;;1.00;;
19149;SDS011;9707;49.158;8.632;2022-09-28T14:57:04;1.85;;;0.55;;
19149;SDS011;9707;49.158;8.632;2022-09-28T14:59:38;2.17;;;0.80;;
19149;SDS011;9707;49.158;8.632;2022-09-28T15:02:11;3.83;;;1.00;;
19149;SDS011;9707;49.158;8.632;2022-09-28T15:04:44;2.45;;;0.95;;
19149;SDS011;9707;49.158;8.632;2022-09-28T15:07:19;2.67;;;1.20;;
19149;SDS011;9707;49.158;8.632;2022-09-28T15:09:46;2.78;;;0.90;;
19149;SDS011;9707;49.158;8.632;2022-09-28T15:12:14;2.45;;;0.75;;
19149;SDS011;9707;49.158;8.632;2022-09-28T15:17:20;2.75;;;1.00;;
19149;SDS011;9707;49.158;8.632;2022-09-28T15:19:50;1.92;;;0.80;;
19149;SDS011;9707;49.158;8.632;2022-09-28T15:22:17;4.13;;;0.90;;
19149;SDS011;9707;49.158;8.632;2022-09-28T15:24:45;3.55;;;0.77;;
19149;SDS011;9707;49.158;8.632;2022-09-28T15:27:19;1.45;;;0.63;;
19149;SDS011;9707;49.158;8.632;2022-09-28T15:29:58;4.63;;;0.82;;
19149;SDS011;9707;49.158;8.632;2022-09-28T15:32:25;4.35;;;0.98;;
19149;SDS011;9707;49.158;8.632;2022-09-28T15:34:52;2.30;;;0.80;;
19149;SDS011;9707;49.158;8.632;2022-09-28T15:37:22;4.50;;;0.90;;
19149;SDS011;9707;49.158;8.632;2022-09-28T15:39:51;1.83;;;0.98;;
19149;SDS011;9707;49.158;8.632;2022-09-28T15:42:18;3.28;;;0.93;;
19149;SDS011;9707;49.158;8.632;2022-09-28T15:47:43;4.03;;;0.70;;
19149;SDS011;9707;49.158;8.632;2022-09-28T15:52:55;3.80;;;1.00;;
19149;SDS011;9707;49.158;8.632;2022-09-28T15:55:25;2.45;;;0.70;;
19149;SDS011;9707;49.158;8.632;2022-09-28T16:00:41;3.42;;;0.88;;
19149;SDS011;9707;49.158;8.632;2022-09-28T16:05:41;2.63;;;0.60;;
19149;SDS011;9707;49.158;8.632;2022-09-28T16:08:12;2.70;;;1.00;;
19149;SDS011;9707;49.158;8.632;2022-09-28T16:10:52;2.55;;;0.75;;
19149;SDS011;9707;49.158;8.632;2022-09-28T16:16:46;4.35;;;2.10;;
19149;SDS011;9707;49.158;8.632;2022-09-28T16:21:59;1.92;;;1.20;;
19149;SDS011;9707;49.158;8.632;2022-09-28T16:24:33;4.35;;;3.58;;
19149;SDS011;9707;49.158;8.632;2022-09-28T16:27:01;4.85;;;0.90;;
19149;SDS011;9707;49.158;8.632;2022-09-28T16:29:31;2.75;;;0.73;;
19149;SDS011;9707;49.158;8.632;2022-09-28T16:34:49;1.58;;;0.80;;
19149;SDS011;9707;49.158;8.632;2022-09-28T16:37:35;2.42;;;0.65;;
19149;SDS011;9707;49.158;8.632;2022-09-28T16:40:01;1.17;;;0.77;;
19149;SDS011;9707;49.158;8.632;2022-09-28T16:42:26;1.50;;;1.13;;
19149;SDS011;9707;49.158;8.632;2022-09-28T16:44:52;2.50;;;1.25;;
19149;SDS011;9707;49.158;8.632;2022-09-28T16:47:21;4.53;;;1.42;;
19149;SDS011;9707;49.158;8.632;2022-09-28T16:49:47;2.53;;;1.00;;
19149;SDS011;9707;49.158;8.632;2022-09-28T16:52:13;1.75;;;0.80;;
19149;SDS011;9707;49.158;8.632;2022-09-28T16:54:59;2.30;;;1.02;;
19149;SDS011;9707;49.158;8.632;2022-09-28T16:57:40;2.20;;;1.00;;
19149;SDS011;9707;49.158;8.632;2022-09-28T17:00:08;3.03;;;0.90;;
19149;SDS011;9707;49.158;8.632;2022-09-28T17:02:38;2.20;;;0.85;;
19149;SDS011;9707;49.158;8.632;2022-09-28T17:05:04;2.72;;;1.30;;
19149;SDS011;9707;49.158;8.632;2022-09-28T17:07:31;4.25;;;1.50;;
19149;SDS011;9707;49.158;8.632;2022-09-28T17:09:57;2.35;;;1.13;;
19149;SDS011;9707;49.158;8.632;2022-09-28T17:12:23;3.78;;;1.73;;
19149;SDS011;9707;49.158;8.632;2022-09-28T17:14:52;1.75;;;1.20;;
19149;SDS011;9707;49.158;8.632;2022-09-28T17:17:18;2.22;;;1.25;;
19149;SDS011;9707;49.158;8.632;2022-09-28T17:19:43;2.75;;;1.00;;
19149;SDS011;9707;49.158;8.632;2022-09-28T17:22:09;2.78;;;1.30;;
19149;SDS011;9707;49.158;8.632;2022-09-28T17:24:34;2.85;;;1.17;;
19149;SDS011;9707;49.158;8.632;2022-09-28T17:27:00;2.40;;;1.10;;
19149;SDS011;9707;49.158;8.632;2022-09-28T17:29:27;3.63;;;1.35;;
19149;SDS011;9707;49.158;8.632;2022-09-28T17:31:53;2.97;;;1.30;;
19149;SDS011;9707;49.158;8.632;2022-09-28T17:34:19;2.95;;;0.90;;
19149;SDS011;9707;49.158;8.632;2022-09-28T17:36:44;4.68;;;1.25;;
19149;SDS011;9707;49.158;8.632;2022-09-28T17:39:11;3.30;;;1.50;;
19149;SDS011;9707;49.158;8.632;2022-09-28T17:41:38;5.35;;;1.90;;
19149;SDS011;9707;49.158;8.632;2022-09-28T17:44:04;2.42;;;1.20;;
19149;SDS011;9707;49.158;8.632;2022-09-28T17:46:34;1.95;;;1.08;;
19149;SDS011;9707;49.158;8.632;2022-09-28T17:49:04;3.90;;;1.23;;
19149;SDS011;9707;49.158;8.632;2022-09-28T17:51:31;2.92;;;1.30;;
19149;SDS011;9707;49.158;8.632;2022-09-28T17:54:01;3.40;;;1.20;;
19149;SDS011;9707;49.158;8.632;2022-09-28T17:56:27;2.63;;;1.10;;
19149;SDS011;9707;49.158;8.632;2022-09-28T17:58:53;3.53;;;1.35;;
19149;SDS011;9707;49.158;8.632;2022-09-28T18:01:20;1.65;;;0.90;;
19149;SDS011;9707;49.158;8.632;2022-09-28T18:03:45;2.28;;;1.10;;
19149;SDS011;9707;49.158;8.632;2022-09-28T18:06:12;2.38;;;1.40;;
19149;SDS011;9707;49.158;8.632;2022-09-28T18:08:39;2.80;;;1.20;;
19149;SDS011;9707;49.158;8.632;2022-09-28T18:11:05;5.43;;;1.13;;
19149;SDS011;9707;49.158;8.632;2022-09-28T18:13:31;3.05;;;1.50;;
19149;SDS011;9707;49.158;8.632;2022-09-28T18:15:56;3.95;;;2.55;;
19149;SDS011;9707;49.158;8.632;2022-09-28T18:18:22;3.78;;;2.85;;
19149;SDS011;9707;49.158;8.632;2022-09-28T18:20:48;2.90;;;2.38;;
19149;SDS011;9707;49.158;8.632;2022-09-28T18:23:14;4.68;;;3.30;;
19149;SDS011;9707;49.158;8.632;2022-09-28T18:25:40;4.70;;;3.33;;
19149;SDS011;9707;49.158;8.632;2022-09-28T18:28:07;7.57;;;4.95;;
19149;SDS011;9707;49.158;8.632;2022-09-28T18:30:33;9.52;;;4.00;;
19149;SDS011;9707;49.158;8.632;2022-09-28T18:33:02;7.60;;;4.93;;
19149;SDS011;9707;49.158;8.632;2022-09-28T18:35:27;4.85;;;3.70;;
19149;SDS011;9707;49.158;8.632;2022-09-28T18:37:52;5.15;;;4.07;;
19149;SDS011;9707;49.158;8.632;2022-09-28T18:40:18;7.20;;;4.00;;
19149;SDS011;9707;49.158;8.632;2022-09-28T18:42:44;6.00;;;4.07;;
19149;SDS011;9707;49.158;8.632;2022-09-28T18:45:09;7.32;;;4.00;;
19149;SDS011;9707;49.158;8.632;2022-09-28T18:47:35;9.52;;;3.63;;
19149;SDS011;9707;49.158;8.632;2022-09-28T18:50:02;7.78;;;3.75;;
19149;SDS011;9707;49.158;8.632;2022-09-28T18:52:27;6.20;;;3.30;;
19149;SDS011;9707;49.158;8.632;2022-09-28T18:54:53;5.28;;;2.83;;
19149;SDS011;9707;49.158;8.632;2022-09-28T18:57:18;4.07;;;2.25;;